Aviation Digital Data Service (ADDS)

Output produced by TAFs form (1954 UTC 06 December 2016)
found at http://aviationweather.gov/adds/tafs/
 
KEGE 061729Z 0618/0718 26003KT P6SM BKN110 
     FM062000 26005KT P6SM VCSH BKN060 
     FM070000 25006KT 5SM BR VCSH OVC040 
     FM070200 28004KT 4SM -SN BR OVC025 
     FM070600 28007KT 3SM -SN BR OVC020 
     FM070900 29007KT 4SM BR VCSH OVC025